KAXV/AXV METAR and TAF weather

Enter ICAO airport designator
Station Type Date Time Source
KAXV METAR 2022/12/01 00:15 UTC NOAA

KAXV 010015Z AUTO 26019G26KT 10SM OVC035 M01/M08 A3017 RMK AO2


Station Type Date Time Source
KAXV Decoded METAR 2022/12/01 00:15 UTC NOAA

Station name not available
Nov 30, 2022 - 07:15 PM EST / 2022.12.01 0015 UTC
Wind: from the W (260 degrees) at 22 MPH (19 KT) gusting to 30 MPH (26 KT):0
Visibility: 10 mile(s):0
Sky conditions: overcast
Temperature: 30 F (-1 C)
Windchill: 17 F (-8 C):1
Dew Point: 17 F (-8 C)
Relative Humidity: 58%
Pressure (altimeter): 30.17 in. Hg (1021 hPa)
ob: KAXV 010015Z AUTO 26019G26KT 10SM OVC035 M01/M08 A3017 RMK AO2
cycle: 0

Station Type Date Time Source
KAXV TAF UTC NOAA

Error!

Example: see airport list